Time;durP1;ratioP1;P1;durP2;ratioP2;P2;SDS_P1;SDS_P2;PMS_P1;PMS_P2;Temp;Humidity;BMP_temperature;BMP_pressure;BME280_temperature;BME280_humidity;BME280_pressure;Samples;Min_cycle;Max_cycle;Signal;HPM_P1;HPM_P2
2023/08/31 00:01:53;;;;;;;1.95;0.50;;;12.20;99.90;;;;;;5117005;28;20047;-68
2023/08/31 00:04:39;;;;;;;2.50;0.40;;;12.20;99.90;;;;;;5117515;28;20422;-70
2023/08/31 00:07:25;;;;;;;3.90;0.80;;;12.20;99.90;;;;;;5116177;28;20491;-80
2023/08/31 00:10:11;;;;;;;5.20;0.55;;;12.20;99.90;;;;;;5111320;28;20499;-78
2023/08/31 00:12:57;;;;;;;2.92;0.60;;;12.10;99.90;;;;;;5112263;28;20043;-83
2023/08/31 00:15:46;;;;;;;5.53;0.57;;;12.10;99.90;;;;;;5112286;28;20059;-84
2023/08/31 00:18:32;;;;;;;1.80;0.60;;;12.10;99.90;;;;;;5114343;28;20051;-82
2023/08/31 00:21:18;;;;;;;2.25;0.50;;;12.00;99.90;;;;;;5112207;28;20044;-80
2023/08/31 00:24:05;;;;;;;2.15;0.80;;;11.90;99.90;;;;;;5113719;28;20518;-69
2023/08/31 00:26:51;;;;;;;4.28;0.57;;;11.90;99.90;;;;;;5112562;28;20059;-81
2023/08/31 00:29:38;;;;;;;5.85;0.77;;;11.80;99.90;;;;;;5097802;28;20169;-83
2023/08/31 00:32:24;;;;;;;2.60;0.65;;;11.80;99.90;;;;;;5111188;28;20056;-74
2023/08/31 00:35:10;;;;;;;2.55;0.52;;;11.80;99.90;;;;;;5112428;28;20051;-83
2023/08/31 00:37:58;;;;;;;2.72;0.80;;;11.80;99.90;;;;;;5111065;28;20388;-84
2023/08/31 00:40:45;;;;;;;1.52;0.65;;;11.80;99.90;;;;;;5112307;28;20047;-82
2023/08/31 00:43:32;;;;;;;3.92;0.95;;;11.80;99.90;;;;;;5112151;28;20807;-76
2023/08/31 00:46:18;;;;;;;3.58;0.55;;;11.70;99.90;;;;;;5112374;28;20427;-72
2023/08/31 00:49:04;;;;;;;3.78;0.68;;;11.70;99.90;;;;;;5112741;28;20048;-75
2023/08/31 00:51:50;;;;;;;2.83;0.77;;;11.70;99.90;;;;;;5112620;28;20523;-82
2023/08/31 00:54:37;;;;;;;5.93;0.77;;;11.70;99.90;;;;;;5112031;28;20067;-78
2023/08/31 00:57:26;;;;;;;5.65;0.80;;;11.70;99.90;;;;;;5112037;28;20058;-74
2023/08/31 01:00:13;;;;;;;6.47;1.00;;;11.70;99.90;;;;;;5110104;28;20055;-71
2023/08/31 01:03:05;;;;;;;3.38;0.80;;;11.70;99.90;;;;;;5111965;28;20463;-70
2023/08/31 01:06:05;;;;;;;6.95;1.10;;;11.60;99.90;;;;;;5112076;28;20573;-70
2023/08/31 01:09:23;;;;;;;6.00;0.80;;;11.60;99.90;;;;;;5112077;28;20048;-69
2023/08/31 01:12:14;;;;;;;6.95;0.90;;;11.60;99.90;;;;;;5112082;28;20522;-83
2023/08/31 01:15:07;;;;;;;2.95;0.70;;;11.60;99.90;;;;;;5110702;28;20487;-76
2023/08/31 01:17:56;;;;;;;4.63;0.65;;;11.60;99.90;;;;;;5112090;28;20171;-79
2023/08/31 01:20:58;;;;;;;6.15;0.90;;;11.60;99.90;;;;;;5110450;28;20055;-82
2023/08/31 01:23:53;;;;;;;3.83;0.80;;;11.60;99.90;;;;;;5109730;28;20066;-83
2023/08/31 01:26:41;;;;;;;6.15;0.98;;;11.70;99.90;;;;;;5111025;28;20577;-76
2023/08/31 01:29:29;;;;;;;4.20;0.93;;;11.70;99.90;;;;;;5110371;28;20201;-69
2023/08/31 01:32:16;;;;;;;4.97;1.10;;;11.70;99.90;;;;;;5111173;28;20058;-70
2023/08/31 01:35:05;;;;;;;8.43;1.17;;;11.80;99.90;;;;;;5110601;28;20055;-73
2023/08/31 01:37:58;;;;;;;2.38;0.63;;;11.80;99.90;;;;;;5111458;28;20122;-71
2023/08/31 01:40:55;;;;;;;9.32;1.48;;;11.80;99.90;;;;;;5110491;28;20058;-76
2023/08/31 01:43:43;;;;;;;3.22;0.80;;;11.80;99.90;;;;;;5109975;28;20059;-71
2023/08/31 01:46:30;;;;;;;4.13;0.93;;;11.90;99.90;;;;;;5110167;28;20122;-71
2023/08/31 01:49:16;;;;;;;7.60;1.70;;;11.90;99.90;;;;;;5112627;28;20461;-84
2023/08/31 01:52:03;;;;;;;7.03;0.95;;;11.90;99.90;;;;;;5110479;28;20112;-79
2023/08/31 01:54:49;;;;;;;4.15;0.52;;;11.90;99.90;;;;;;5095785;28;20055;-70
2023/08/31 01:57:35;;;;;;;4.57;0.90;;;11.90;99.90;;;;;;5110052;28;20452;-71
2023/08/31 02:00:21;;;;;;;4.50;0.95;;;11.90;99.90;;;;;;5109581;28;20138;-83
2023/08/31 02:03:08;;;;;;;2.78;0.80;;;12.00;99.90;;;;;;5110100;28;20136;-70
2023/08/31 02:05:54;;;;;;;5.07;0.75;;;12.00;99.90;;;;;;5110162;28;20059;-69
2023/08/31 02:08:40;;;;;;;2.97;0.65;;;12.00;99.90;;;;;;5110210;28;20047;-70
2023/08/31 02:11:26;;;;;;;4.03;1.00;;;12.00;99.90;;;;;;5110548;28;20121;-70
2023/08/31 02:14:12;;;;;;;6.30;1.45;;;12.00;99.90;;;;;;5108661;28;20055;-74
2023/08/31 02:16:58;;;;;;;9.93;1.42;;;12.10;99.90;;;;;;5111619;28;20079;-70
2023/08/31 02:19:45;;;;;;;4.72;0.75;;;12.00;99.90;;;;;;5110379;28;20059;-70
2023/08/31 02:22:35;;;;;;;5.70;1.33;;;12.00;99.90;;;;;;5108934;28;20089;-70
2023/08/31 02:25:21;;;;;;;12.57;0.90;;;12.10;99.90;;;;;;5110596;28;20502;-69
2023/08/31 02:28:07;;;;;;;6.68;1.15;;;12.10;99.90;;;;;;5110643;28;20108;-70
2023/08/31 02:31:01;;;;;;;4.07;1.10;;;12.10;99.90;;;;;;5111469;28;20054;-72
2023/08/31 02:33:47;;;;;;;7.47;1.30;;;12.10;99.90;;;;;;5109014;28;20051;-73
2023/08/31 02:36:33;;;;;;;4.55;1.00;;;12.00;99.90;;;;;;5109140;28;20128;-81
2023/08/31 02:39:19;;;;;;;3.90;1.10;;;12.00;99.90;;;;;;5109809;28;20052;-73
2023/08/31 02:42:06;;;;;;;4.25;0.70;;;12.00;99.90;;;;;;5110288;28;20059;-74
2023/08/31 02:44:53;;;;;;;2.67;0.77;;;12.00;99.90;;;;;;5109894;28;20418;-69
2023/08/31 02:47:39;;;;;;;8.35;1.85;;;12.00;99.90;;;;;;5108821;28;20058;-76
2023/08/31 02:50:25;;;;;;;2.47;0.73;;;12.00;99.90;;;;;;5110652;28;20054;-76
2023/08/31 02:53:11;;;;;;;3.40;0.80;;;12.00;99.90;;;;;;5110532;28;20128;-81
2023/08/31 02:55:58;;;;;;;4.68;1.17;;;12.00;99.90;;;;;;5109195;28;20044;-71
2023/08/31 02:58:44;;;;;;;7.43;1.42;;;12.00;99.90;;;;;;5110696;28;20059;-70
2023/08/31 03:01:30;;;;;;;5.38;1.27;;;12.00;99.90;;;;;;5112711;28;20051;-77
2023/08/31 03:04:17;;;;;;;3.92;1.33;;;12.00;99.90;;;;;;5099766;28;20055;-77
2023/08/31 03:07:06;;;;;;;3.00;0.75;;;12.00;99.90;;;;;;5115978;28;20143;-71
2023/08/31 03:09:52;;;;;;;6.05;1.30;;;12.00;99.90;;;;;;5115557;28;20134;-83
2023/08/31 03:12:38;;;;;;;5.03;1.10;;;11.90;99.90;;;;;;5113777;28;20044;-71
2023/08/31 03:15:24;;;;;;;2.70;0.82;;;11.80;99.90;;;;;;5113380;28;20690;-69
2023/08/31 03:18:10;;;;;;;4.30;1.02;;;11.80;99.90;;;;;;5113676;28;20505;-74
2023/08/31 03:20:56;;;;;;;8.80;1.33;;;11.70;99.90;;;;;;5113515;28;20089;-72
2023/08/31 03:23:42;;;;;;;3.13;1.48;;;11.60;99.90;;;;;;5112587;28;20047;-69
2023/08/31 03:26:28;;;;;;;3.78;0.75;;;11.60;99.90;;;;;;5114119;28;20448;-73
2023/08/31 03:29:14;;;;;;;2.78;0.88;;;11.60;99.90;;;;;;5113634;28;20495;-77
2023/08/31 03:32:01;;;;;;;5.80;0.90;;;11.50;99.90;;;;;;5114287;28;20047;-85
2023/08/31 03:34:48;;;;;;;3.95;1.05;;;11.50;99.90;;;;;;5114580;28;20097;-82
2023/08/31 03:37:34;;;;;;;4.32;1.30;;;11.40;99.90;;;;;;5117399;28;20047;-86
2023/08/31 03:40:21;;;;;;;6.07;0.90;;;11.40;99.90;;;;;;5114702;28;20051;-79
2023/08/31 03:43:07;;;;;;;3.10;0.95;;;11.40;99.90;;;;;;5112550;28;20047;-76
2023/08/31 03:45:57;;;;;;;5.35;1.20;;;11.30;99.90;;;;;;5114026;28;20055;-73
2023/08/31 03:48:43;;;;;;;5.63;1.15;;;11.20;99.90;;;;;;5113758;28;20095;-69
2023/08/31 03:51:29;;;;;;;3.22;1.38;;;11.20;99.90;;;;;;5115687;28;20117;-78
2023/08/31 03:54:15;;;;;;;5.60;1.17;;;11.10;99.90;;;;;;5115110;28;20060;-72
2023/08/31 03:57:02;;;;;;;5.88;1.30;;;11.10;99.90;;;;;;5114206;28;20228;-67
2023/08/31 03:59:48;;;;;;;3.05;0.80;;;11.10;99.90;;;;;;5112546;28;20055;-75
2023/08/31 04:02:35;;;;;;;3.03;1.08;;;11.00;99.90;;;;;;5112589;28;20112;-74
2023/08/31 04:05:21;;;;;;;4.82;1.00;;;11.00;99.90;;;;;;5113425;28;20047;-71
2023/08/31 04:08:08;;;;;;;3.53;0.90;;;11.00;99.90;;;;;;5112108;28;20170;-80
2023/08/31 04:10:54;;;;;;;5.00;1.00;;;10.90;99.90;;;;;;5110934;28;20055;-77
2023/08/31 04:13:40;;;;;;;4.68;1.08;;;10.90;99.90;;;;;;5112797;28;20487;-69
2023/08/31 04:16:26;;;;;;;4.43;1.10;;;10.80;99.90;;;;;;5110741;28;20047;-77
2023/08/31 04:19:12;;;;;;;4.40;1.00;;;10.80;99.90;;;;;;5112825;28;20214;-68
2023/08/31 04:21:58;;;;;;;5.53;1.20;;;10.80;99.90;;;;;;5112857;28;20081;-75
2023/08/31 04:24:44;;;;;;;2.38;0.80;;;10.80;99.90;;;;;;5110618;28;20152;-79
2023/08/31 04:27:33;;;;;;;4.72;1.02;;;10.80;99.90;;;;;;5112803;28;20047;-75
2023/08/31 04:30:20;;;;;;;4.25;0.85;;;10.70;99.90;;;;;;5111987;28;20108;-73
2023/08/31 04:33:07;;;;;;;5.72;1.20;;;10.70;99.90;;;;;;5112700;28;20506;-80
2023/08/31 04:35:53;;;;;;;4.18;1.02;;;10.70;99.90;;;;;;5098316;28;20062;-78
2023/08/31 04:38:39;;;;;;;3.90;1.33;;;10.70;99.90;;;;;;5110812;28;20047;-76
2023/08/31 04:41:25;;;;;;;4.63;1.15;;;10.70;99.90;;;;;;5113061;28;20051;-74
2023/08/31 04:44:11;;;;;;;4.50;1.13;;;10.70;99.90;;;;;;5113380;28;20738;-81
2023/08/31 04:46:57;;;;;;;5.68;1.33;;;10.70;99.90;;;;;;5112666;28;20135;-76
2023/08/31 04:49:43;;;;;;;4.60;1.33;;;10.70;99.90;;;;;;5111997;28;20054;-69
2023/08/31 04:52:30;;;;;;;2.40;1.00;;;10.70;99.90;;;;;;5112461;28;20070;-70
2023/08/31 04:55:16;;;;;;;6.53;1.33;;;10.70;99.90;;;;;;5112503;28;20043;-71
2023/08/31 04:58:03;;;;;;;7.25;1.40;;;10.70;99.90;;;;;;5111774;28;20056;-68
2023/08/31 05:00:49;;;;;;;3.03;1.05;;;10.70;99.90;;;;;;5112154;28;20476;-73
2023/08/31 05:03:35;;;;;;;8.05;1.50;;;10.80;99.90;;;;;;5112322;28;20139;-70
2023/08/31 05:06:21;;;;;;;6.53;1.77;;;10.80;99.90;;;;;;5111813;28;20522;-72
2023/08/31 05:09:08;;;;;;;3.58;1.38;;;10.80;99.90;;;;;;5110546;28;20054;-75
2023/08/31 05:11:54;;;;;;;5.78;1.60;;;10.90;99.90;;;;;;5110671;28;20044;-70
2023/08/31 05:14:40;;;;;;;5.80;1.73;;;10.90;99.90;;;;;;5117123;28;20057;-71
2023/08/31 05:17:26;;;;;;;9.85;1.80;;;10.90;99.90;;;;;;5116492;28;20055;-72
2023/08/31 05:20:13;;;;;;;5.20;1.40;;;10.90;99.90;;;;;;5116720;27;20051;-70
2023/08/31 05:22:59;;;;;;;5.05;1.48;;;10.90;99.90;;;;;;5095813;28;20424;-79
2023/08/31 05:25:45;;;;;;;8.10;2.00;;;11.00;99.90;;;;;;5110839;28;20055;-85
2023/08/31 05:28:32;;;;;;;5.07;1.95;;;11.10;99.90;;;;;;5110740;28;20047;-74
2023/08/31 05:31:18;;;;;;;8.93;1.95;;;11.10;99.90;;;;;;5110663;28;20040;-81
2023/08/31 05:34:04;;;;;;;7.43;1.83;;;11.10;99.90;;;;;;5110748;28;20048;-70
2023/08/31 05:36:50;;;;;;;5.47;1.55;;;11.20;99.90;;;;;;5112545;28;20043;-73
2023/08/31 05:39:36;;;;;;;3.60;1.70;;;11.20;99.90;;;;;;5111540;28;20059;-72
2023/08/31 05:42:22;;;;;;;5.97;1.63;;;11.30;99.90;;;;;;5110484;28;20143;-72
2023/08/31 05:45:09;;;;;;;9.27;2.20;;;11.30;99.90;;;;;;5110430;28;20055;-71
2023/08/31 05:47:55;;;;;;;5.13;1.92;;;11.50;99.90;;;;;;5111251;28;20044;-69
2023/08/31 05:50:43;;;;;;;9.13;2.25;;;11.60;99.90;;;;;;5111688;28;20039;-71
2023/08/31 05:53:32;;;;;;;7.65;2.60;;;11.80;99.90;;;;;;5112388;28;20148;-70
2023/08/31 05:56:19;;;;;;;5.65;1.65;;;12.00;99.90;;;;;;5111619;28;20059;-69
2023/08/31 05:59:06;;;;;;;8.93;2.28;;;12.10;99.90;;;;;;5110621;28;20052;-68
2023/08/31 06:01:52;;;;;;;6.57;2.17;;;12.20;99.90;;;;;;5112520;28;20086;-83
2023/08/31 06:04:39;;;;;;;5.50;1.75;;;12.40;99.90;;;;;;5110518;28;20047;-83
2023/08/31 06:07:25;;;;;;;5.82;1.77;;;12.40;99.90;;;;;;5111211;28;20075;-69
2023/08/31 06:10:11;;;;;;;4.57;1.58;;;12.50;99.90;;;;;;5110680;28;20059;-72
2023/08/31 06:12:57;;;;;;;5.50;1.70;;;12.60;99.90;;;;;;5112430;28;20047;-69
2023/08/31 06:15:46;;;;;;;7.88;1.80;;;12.70;99.90;;;;;;5112344;28;20055;-70
2023/08/31 06:18:32;;;;;;;7.30;1.73;;;12.80;99.90;;;;;;5111625;28;20134;-69
2023/08/31 06:21:19;;;;;;;5.03;1.60;;;13.00;99.90;;;;;;5109955;28;20050;-76
2023/08/31 06:24:06;;;;;;;6.10;1.67;;;13.10;99.90;;;;;;5112411;28;20048;-77
2023/08/31 06:26:54;;;;;;;8.43;1.88;;;13.20;99.90;;;;;;5110789;28;20048;-70
2023/08/31 06:29:40;;;;;;;3.90;1.00;;;13.40;99.90;;;;;;5110620;28;20060;-72
2023/08/31 06:32:27;;;;;;;3.22;1.20;;;13.50;99.90;;;;;;5109120;28;20079;-75
2023/08/31 06:35:17;;;;;;;6.57;1.58;;;13.70;99.90;;;;;;5110019;28;20056;-74
2023/08/31 06:38:03;;;;;;;5.10;1.65;;;13.90;99.90;;;;;;5110603;28;20081;-71
2023/08/31 06:40:49;;;;;;;5.70;1.13;;;14.10;99.90;;;;;;5109586;28;20402;-71
2023/08/31 06:43:36;;;;;;;3.08;0.88;;;14.30;99.90;;;;;;5109431;28;20047;-76
2023/08/31 06:46:22;;;;;;;5.82;0.85;;;14.50;99.90;;;;;;5109419;28;20497;-74
2023/08/31 06:49:09;;;;;;;6.45;1.63;;;14.60;99.90;;;;;;5110265;28;20410;-69
2023/08/31 06:51:55;;;;;;;6.88;1.00;;;14.70;99.90;;;;;;5110650;28;20135;-74
2023/08/31 06:54:41;;;;;;;4.03;1.20;;;14.70;99.90;;;;;;5109957;28;20131;-70
2023/08/31 06:57:27;;;;;;;5.43;1.08;;;14.70;99.90;;;;;;5110346;28;20048;-71
2023/08/31 07:00:14;;;;;;;4.20;1.05;;;14.80;99.90;;;;;;5111108;28;20047;-70
2023/08/31 07:03:00;;;;;;;6.05;1.75;;;14.90;99.90;;;;;;5109208;28;20043;-84
2023/08/31 07:05:46;;;;;;;5.85;1.13;;;15.00;99.90;;;;;;5109212;28;20056;-71
2023/08/31 07:08:33;;;;;;;5.85;1.33;;;15.10;99.90;;;;;;5109591;28;20059;-70
2023/08/31 07:11:19;;;;;;;3.67;1.23;;;15.20;99.90;;;;;;5109270;28;20491;-70
2023/08/31 07:14:05;;;;;;;4.70;1.15;;;15.30;99.90;;;;;;5109292;28;20058;-73
2023/08/31 07:16:51;;;;;;;5.55;0.90;;;15.40;99.90;;;;;;5109895;28;20055;-73
2023/08/31 07:19:37;;;;;;;3.95;0.82;;;15.40;99.90;;;;;;5110199;28;20479;-70
2023/08/31 07:22:24;;;;;;;4.90;1.05;;;15.60;99.90;;;;;;5108753;28;20130;-78
2023/08/31 07:25:10;;;;;;;4.70;0.63;;;15.60;99.90;;;;;;5110952;28;20162;-74
2023/08/31 07:27:56;;;;;;;11.00;1.00;;;15.60;99.90;;;;;;5109013;28;20044;-72
2023/08/31 07:30:42;;;;;;;3.80;1.05;;;15.60;99.90;;;;;;5110656;28;20066;-70
2023/08/31 07:33:31;;;;;;;3.95;1.20;;;15.60;99.90;;;;;;5109658;28;20047;-73
2023/08/31 07:36:17;;;;;;;5.10;0.85;;;15.60;99.90;;;;;;5108497;28;20051;-70
2023/08/31 07:39:04;;;;;;;4.10;0.80;;;15.60;99.90;;;;;;5111086;28;20059;-70
2023/08/31 07:41:50;;;;;;;3.38;0.50;;;15.60;99.90;;;;;;5110582;28;20052;-70
2023/08/31 07:44:37;;;;;;;3.95;0.60;;;15.50;99.90;;;;;;5108887;28;20134;-74
2023/08/31 07:47:23;;;;;;;5.53;0.90;;;15.50;99.90;;;;;;5113581;28;20478;-72
2023/08/31 07:50:10;;;;;;;2.83;0.55;;;15.50;99.90;;;;;;5112452;28;20048;-71
2023/08/31 07:52:56;;;;;;;3.42;0.65;;;15.40;99.90;;;;;;5112443;28;20054;-71
2023/08/31 07:55:50;;;;;;;3.45;0.50;;;15.40;99.90;;;;;;5112536;28;20472;-70
2023/08/31 07:58:36;;;;;;;1.67;0.52;;;15.30;99.90;;;;;;5111450;28;20055;-72
2023/08/31 08:01:22;;;;;;;4.22;0.77;;;15.50;99.90;;;;;;5113080;28;20052;-73
2023/08/31 08:04:08;;;;;;;4.43;0.70;;;15.80;99.90;;;;;;5111222;28;20062;-72
2023/08/31 08:06:55;;;;;;;2.72;0.50;;;16.30;99.90;;;;;;5113708;28;20122;-71
2023/08/31 08:09:41;;;;;;;1.60;0.40;;;16.70;99.90;;;;;;5113483;28;20047;-71
2023/08/31 08:12:27;;;;;;;2.67;0.65;;;16.60;99.90;;;;;;5111404;28;20055;-72
2023/08/31 08:15:14;;;;;;;2.00;0.40;;;16.70;99.90;;;;;;5111753;28;20051;-72
2023/08/31 08:18:00;;;;;;;3.28;0.65;;;16.90;99.90;;;;;;5113012;28;20089;-75
2023/08/31 08:20:53;;;;;;;3.67;0.63;;;16.90;99.90;;;;;;5115014;28;20092;-70
2023/08/31 08:23:39;;;;;;;2.20;0.50;;;17.10;99.90;;;;;;5113416;28;20047;-78
2023/08/31 08:26:25;;;;;;;3.70;0.57;;;17.30;99.90;;;;;;5112673;28;20047;-76
2023/08/31 08:29:12;;;;;;;1.58;0.47;;;17.40;99.90;;;;;;5111135;28;20576;-74
2023/08/31 08:31:58;;;;;;;4.28;0.60;;;17.40;99.90;;;;;;5111813;28;20044;-79
2023/08/31 08:34:44;;;;;;;4.03;1.05;;;17.30;99.90;;;;;;5111442;28;20084;-84
2023/08/31 08:37:34;;;;;;;4.32;0.98;;;17.40;99.90;;;;;;5111441;28;20116;-84
2023/08/31 08:40:21;;;;;;;2.85;0.70;;;17.60;99.90;;;;;;5113994;28;20047;-84
2023/08/31 08:43:08;;;;;;;2.63;0.50;;;17.80;99.90;;;;;;5112138;28;20094;-80
2023/08/31 08:45:55;;;;;;;11.00;1.60;;;18.00;99.90;;;;;;5112023;28;20388;-84
2023/08/31 08:48:42;;;;;;;6.88;0.77;;;18.30;99.90;;;;;;5111330;28;20805;-80
2023/08/31 08:51:30;;;;;;;5.68;0.70;;;18.60;99.90;;;;;;5111525;28;20040;-84
2023/08/31 08:54:18;;;;;;;9.07;1.73;;;18.60;99.90;;;;;;5111423;28;20051;-73
2023/08/31 08:57:04;;;;;;;5.93;1.00;;;18.50;99.90;;;;;;5110907;28;20047;-79
2023/08/31 08:59:50;;;;;;;4.72;0.90;;;18.10;99.90;;;;;;5112556;28;20043;-76
2023/08/31 09:02:37;;;;;;;6.18;1.00;;;17.70;99.90;;;;;;5112748;28;20051;-73
2023/08/31 09:05:23;;;;;;;5.78;0.88;;;17.50;99.90;;;;;;5112017;28;20538;-72
2023/08/31 09:08:12;;;;;;;4.95;0.90;;;17.60;99.90;;;;;;5111887;28;20055;-71
2023/08/31 09:10:58;;;;;;;2.40;0.60;;;17.80;99.90;;;;;;5112413;28;20113;-75
2023/08/31 09:13:44;;;;;;;4.05;0.80;;;18.10;99.90;;;;;;5113406;28;20083;-73
2023/08/31 09:16:31;;;;;;;2.88;0.95;;;18.30;99.90;;;;;;5110877;28;20044;-75
2023/08/31 09:19:23;;;;;;;7.20;0.75;;;18.20;99.90;;;;;;5111684;28;20079;-78
2023/08/31 09:22:11;;;;;;;4.88;0.93;;;18.40;99.90;;;;;;5111383;28;20048;-73
2023/08/31 09:24:57;;;;;;;4.95;0.80;;;18.60;99.90;;;;;;5112034;28;20086;-79
2023/08/31 09:27:44;;;;;;;7.22;0.80;;;18.80;99.90;;;;;;5109437;28;20056;-82
2023/08/31 09:30:35;;;;;;;4.15;0.60;;;18.90;99.90;;;;;;5109812;28;20040;-70
2023/08/31 09:33:22;;;;;;;4.32;0.90;;;19.10;99.90;;;;;;5109240;28;20063;-73
2023/08/31 09:36:08;;;;;;;5.47;1.13;;;19.20;99.90;;;;;;5111286;28;20510;-83
2023/08/31 09:38:58;;;;;;;6.47;0.90;;;18.80;99.90;;;;;;5109577;28;20078;-73
2023/08/31 09:41:54;;;;;;;3.25;0.73;;;18.60;99.90;;;;;;5109911;28;20053;-73
2023/08/31 09:44:43;;;;;;;1.95;0.52;;;18.30;99.90;;;;;;5109917;28;20193;-78
2023/08/31 09:47:30;;;;;;;1.40;0.52;;;18.10;99.90;;;;;;5109113;28;20055;-71
2023/08/31 09:50:17;;;;;;;3.70;0.90;;;18.00;99.90;;;;;;5109372;28;20068;-73
2023/08/31 09:53:05;;;;;;;2.63;0.90;;;18.10;99.90;;;;;;5110703;28;20153;-70
2023/08/31 09:55:52;;;;;;;2.15;0.55;;;18.30;99.90;;;;;;5108413;28;20059;-73
2023/08/31 09:58:38;;;;;;;1.55;0.40;;;18.60;99.90;;;;;;5110325;28;20054;-73
2023/08/31 10:01:24;;;;;;;2.42;0.57;;;18.90;99.90;;;;;;5110723;28;20044;-73
2023/08/31 10:04:12;;;;;;;4.13;0.82;;;19.10;99.90;;;;;;5110295;28;20490;-82
2023/08/31 10:06:59;;;;;;;5.63;0.70;;;19.20;99.90;;;;;;5109388;28;20056;-71
2023/08/31 10:09:45;;;;;;;6.68;0.73;;;19.40;99.90;;;;;;5095795;28;20051;-77
2023/08/31 10:12:31;;;;;;;4.53;0.50;;;19.50;99.90;;;;;;5109551;28;20047;-79
2023/08/31 10:15:19;;;;;;;7.32;1.38;;;19.50;99.90;;;;;;5110092;28;20134;-73
2023/08/31 10:18:06;;;;;;;1.98;0.45;;;19.70;99.90;;;;;;5108956;28;20036;-74
2023/08/31 10:20:52;;;;;;;4.53;0.60;;;20.00;99.90;;;;;;5110994;28;20058;-74
2023/08/31 10:23:45;;;;;;;2.20;0.70;;;20.20;99.90;;;;;;5109452;28;20058;-72
2023/08/31 10:26:31;;;;;;;4.93;0.90;;;20.00;99.90;;;;;;5067580;28;1200926;-74
2023/08/31 10:29:35;;;;;;;2.90;0.47;;;20.10;99.90;;;;;;5111544;28;20081;-82
2023/08/31 10:32:22;;;;;;;3.10;0.70;;;20.30;99.90;;;;;;5111491;28;20055;-79
2023/08/31 10:35:09;;;;;;;4.80;0.98;;;20.30;99.90;;;;;;5114437;28;20047;-77
2023/08/31 10:38:25;;;;;;;2.08;0.50;;;20.20;99.90;;;;;;5109845;28;20491;-82
2023/08/31 10:41:11;;;;;;;3.78;0.90;;;20.50;99.90;;;;;;5109190;28;20047;-74
2023/08/31 10:43:58;;;;;;;5.38;0.80;;;20.90;99.90;;;;;;5109557;28;20047;-76
2023/08/31 10:46:44;;;;;;;2.28;0.70;;;21.40;99.90;;;;;;5109592;28;20067;-75
2023/08/31 10:49:32;;;;;;;2.70;0.85;;;21.70;99.90;;;;;;5109927;28;20044;-76
2023/08/31 10:52:19;;;;;;;4.70;0.70;;;21.30;99.90;;;;;;5109502;28;20043;-76
2023/08/31 10:55:06;;;;;;;6.30;1.40;;;20.50;99.90;;;;;;5112876;28;20116;-77
2023/08/31 10:57:52;;;;;;;5.47;0.93;;;19.70;99.90;;;;;;5110291;28;20063;-76
2023/08/31 11:01:07;;;;;;;5.85;1.05;;;19.10;99.90;;;;;;5108938;28;20413;-73
2023/08/31 11:03:57;;;;;;;;;;;18.40;99.90;;;;;;5108172;28;20051;-72
2023/08/31 11:06:43;;;;;;;4.45;1.05;;;17.90;99.90;;;;;;5111025;28;20014;-83
2023/08/31 11:09:29;;;;;;;2.83;1.02;;;17.70;99.90;;;;;;5109964;28;20139;-83
2023/08/31 11:12:15;;;;;;;5.28;0.80;;;17.60;99.90;;;;;;5111355;28;20511;-80
2023/08/31 11:15:03;;;;;;;5.78;0.82;;;17.40;99.90;;;;;;5109044;28;20051;-76
2023/08/31 11:17:51;;;;;;;4.38;0.90;;;17.40;99.90;;;;;;5109312;28;20055;-78
2023/08/31 11:20:37;;;;;;;7.35;1.15;;;17.90;99.90;;;;;;5110567;28;20040;-76
2023/08/31 11:23:25;;;;;;;3.72;1.73;;;18.20;99.90;;;;;;5113547;28;20056;-83
2023/08/31 11:26:11;;;;;;;3.00;0.70;;;18.20;99.90;;;;;;5113749;28;20044;-72
2023/08/31 11:28:57;;;;;;;3.47;0.90;;;17.90;99.90;;;;;;5114454;28;20058;-77
2023/08/31 11:31:44;;;;;;;5.95;1.13;;;17.90;99.90;;;;;;5114229;28;20052;-72
2023/08/31 11:34:30;;;;;;;5.63;0.88;;;17.70;99.90;;;;;;5112532;28;20047;-77
2023/08/31 11:37:17;;;;;;;5.95;1.40;;;17.70;99.90;;;;;;5113395;28;20519;-78
2023/08/31 11:40:05;;;;;;;6.95;1.20;;;17.90;99.90;;;;;;5114505;28;20461;-81
2023/08/31 11:42:52;;;;;;;5.75;1.23;;;18.30;99.90;;;;;;5113672;28;20431;-70
2023/08/31 11:45:39;;;;;;;6.68;1.55;;;19.10;99.90;;;;;;5112089;28;20052;-70
2023/08/31 11:48:25;;;;;;;6.85;1.55;;;19.70;99.90;;;;;;5112747;28;20138;-70
2023/08/31 11:51:12;;;;;;;3.40;0.60;;;20.60;99.90;;;;;;5113576;28;20127;-73
2023/08/31 11:53:59;;;;;;;5.95;1.27;;;21.10;99.90;;;;;;5111785;28;20051;-71
2023/08/31 11:56:48;;;;;;;6.88;1.00;;;21.50;99.90;;;;;;5112969;28;20459;-70
2023/08/31 11:59:38;;;;;;;3.67;1.08;;;21.90;99.90;;;;;;5111447;28;20097;-72
2023/08/31 12:02:25;;;;;;;4.15;0.90;;;22.20;99.90;;;;;;5113747;28;20107;-73
2023/08/31 12:05:11;;;;;;;4.55;1.10;;;22.60;99.90;;;;;;5113366;28;20115;-71
2023/08/31 12:07:57;;;;;;;5.57;1.00;;;22.90;99.90;;;;;;5112719;28;20054;-72
2023/08/31 12:10:43;;;;;;;3.42;0.90;;;22.80;99.90;;;;;;5113451;28;20040;-72
2023/08/31 12:13:29;;;;;;;4.82;0.80;;;23.20;99.90;;;;;;5112655;28;20372;-71
2023/08/31 12:16:17;;;;;;;6.60;1.30;;;23.50;99.70;;;;;;5112955;28;20039;-77
2023/08/31 12:19:06;;;;;;;8.13;1.42;;;23.70;99.00;;;;;;5117403;28;20054;-74
2023/08/31 12:21:54;;;;;;;3.70;0.90;;;23.80;98.10;;;;;;5113262;28;20150;-75
2023/08/31 12:24:41;;;;;;;3.88;0.60;;;24.30;97.60;;;;;;5117653;28;20071;-78
2023/08/31 12:27:27;;;;;;;3.15;0.70;;;24.60;97.20;;;;;;5116870;28;20051;-78
2023/08/31 12:30:13;;;;;;;6.70;1.40;;;25.10;96.80;;;;;;5116627;28;20418;-75
2023/08/31 12:33:00;;;;;;;5.20;0.80;;;25.20;95.90;;;;;;5113761;28;20062;-76
2023/08/31 12:35:46;;;;;;;5.75;1.00;;;25.50;95.90;;;;;;5112488;28;20043;-72
2023/08/31 12:38:33;;;;;;;5.55;1.70;;;25.40;96.00;;;;;;5112109;28;20085;-74
2023/08/31 12:41:20;;;;;;;6.38;1.30;;;25.70;95.20;;;;;;5112101;28;20059;-78
2023/08/31 12:44:07;;;;;;;3.67;1.20;;;26.30;93.60;;;;;;5113429;28;20090;-80
2023/08/31 12:46:54;;;;;;;4.60;1.00;;;26.80;93.40;;;;;;5111505;28;20044;-76
2023/08/31 12:49:40;;;;;;;5.03;1.63;;;27.00;92.70;;;;;;5111276;28;20087;-71
2023/08/31 12:52:26;;;;;;;2.35;0.50;;;27.50;92.10;;;;;;5112272;28;20047;-73
2023/08/31 12:55:13;;;;;;;4.97;0.77;;;27.50;91.20;;;;;;5111147;28;20090;-74
2023/08/31 12:57:59;;;;;;;5.60;0.90;;;27.20;91.40;;;;;;5112434;28;20169;-83
2023/08/31 13:00:48;;;;;;;6.03;0.90;;;27.40;90.60;;;;;;5113553;28;20449;-82
2023/08/31 13:03:34;;;;;;;5.93;0.88;;;27.60;90.30;;;;;;5112123;28;20380;-73
2023/08/31 13:06:20;;;;;;;4.32;0.73;;;28.00;90.10;;;;;;5110964;28;20482;-71
2023/08/31 13:09:08;;;;;;;4.43;0.93;;;28.50;87.20;;;;;;5112445;28;20074;-76
2023/08/31 13:11:54;;;;;;;4.32;0.70;;;29.10;86.60;;;;;;5111425;28;20075;-83
2023/08/31 13:14:43;;;;;;;5.80;1.50;;;29.90;84.40;;;;;;5111326;28;20051;-82
2023/08/31 13:17:30;;;;;;;5.68;1.05;;;30.20;83.40;;;;;;5112590;28;20047;-77
2023/08/31 13:20:16;;;;;;;3.85;0.80;;;29.90;81.90;;;;;;5113006;28;20051;-75
2023/08/31 13:23:02;;;;;;;3.08;0.85;;;28.00;84.00;;;;;;5109886;28;20047;-76
2023/08/31 13:25:50;;;;;;;3.55;0.70;;;28.10;84.20;;;;;;5111333;28;20132;-79
2023/08/31 13:28:36;;;;;;;3.47;0.60;;;28.70;83.20;;;;;;5111780;28;20059;-76
2023/08/31 13:31:23;;;;;;;3.40;0.77;;;29.30;81.70;;;;;;5111655;28;20043;-78
2023/08/31 13:34:10;;;;;;;4.80;0.80;;;30.00;82.00;;;;;;5110651;28;20143;-71
2023/08/31 13:36:56;;;;;;;5.82;0.80;;;30.50;81.40;;;;;;5110315;28;20047;-80
2023/08/31 13:39:42;;;;;;;4.10;0.70;;;30.40;80.90;;;;;;5110578;28;20459;-78
2023/08/31 13:42:35;;;;;;;3.53;0.75;;;30.60;80.70;;;;;;5114813;28;20048;-73
2023/08/31 13:45:21;;;;;;;4.28;0.80;;;31.30;78.80;;;;;;5109668;28;20058;-74
2023/08/31 13:48:08;;;;;;;3.38;0.80;;;31.80;76.70;;;;;;5109754;28;20058;-78
2023/08/31 13:50:54;;;;;;;4.45;0.80;;;32.30;75.80;;;;;;5109117;28;20058;-72
2023/08/31 13:53:40;;;;;;;6.30;0.80;;;32.00;73.80;;;;;;5111073;28;20086;-71
2023/08/31 13:56:26;;;;;;;4.95;0.90;;;31.90;72.80;;;;;;5109087;28;20457;-76
2023/08/31 13:59:12;;;;;;;4.32;0.70;;;31.80;72.60;;;;;;5109485;28;20054;-71
2023/08/31 14:01:58;;;;;;;2.38;0.60;;;31.80;70.80;;;;;;5111747;28;20445;-80
2023/08/31 14:04:44;;;;;;;2.25;0.57;;;31.90;70.30;;;;;;5110883;28;20147;-73
2023/08/31 14:07:30;;;;;;;5.28;0.77;;;32.20;70.30;;;;;;5110918;28;20130;-83
2023/08/31 14:10:16;;;;;;;7.85;1.00;;;32.70;69.30;;;;;;5109744;28;20109;-73
2023/08/31 14:13:03;;;;;;;5.32;1.02;;;33.00;69.40;;;;;;5109712;28;20139;-71
2023/08/31 14:15:49;;;;;;;7.22;1.25;;;33.10;69.10;;;;;;5112195;28;20055;-81
2023/08/31 14:18:35;;;;;;;4.40;1.15;;;33.10;68.60;;;;;;5112168;28;20384;-75
2023/08/31 14:21:21;;;;;;;3.58;0.88;;;32.80;69.00;;;;;;5113154;28;20051;-78
2023/08/31 14:24:07;;;;;;;4.78;0.80;;;32.50;68.10;;;;;;5111364;28;20043;-78
2023/08/31 14:26:54;;;;;;;3.05;1.00;;;32.50;67.30;;;;;;5111675;28;20064;-74
2023/08/31 14:29:40;;;;;;;5.07;0.95;;;30.80;68.50;;;;;;5110684;28;20459;-74
2023/08/31 14:32:26;;;;;;;6.10;1.08;;;29.00;71.70;;;;;;5109826;28;20051;-74